Time;durP1;ratioP1;P1;durP2;ratioP2;P2;SDS_P1;SDS_P2;PMS_P1;PMS_P2;Temp;Humidity;BMP_temperature;BMP_pressure;BME280_temperature;BME280_humidity;BME280_pressure;Samples;Min_cycle;Max_cycle;Signal;HPM_P1;HPM_P2
2021/01/14 00:00:56;;;;;;;4.82;1.42;;;5.40;80.20;;;;;;5094423;28;20106;-74
2021/01/14 00:03:22;;;;;;;4.30;1.42;;;5.40;80.10;;;;;;5094356;28;20028;-75
2021/01/14 00:05:48;;;;;;;7.20;1.27;;;5.40;80.10;;;;;;5093673;28;20032;-75
2021/01/14 00:08:14;;;;;;;5.35;1.40;;;5.30;80.00;;;;;;5093098;28;20028;-74
2021/01/14 00:10:40;;;;;;;9.00;1.65;;;5.30;80.00;;;;;;5094440;28;20031;-75
2021/01/14 00:13:10;;;;;;;3.10;1.23;;;5.30;79.90;;;;;;5092817;28;20190;-74
2021/01/14 00:15:36;;;;;;;3.92;0.93;;;5.30;79.70;;;;;;5094027;28;20028;-74
2021/01/14 00:18:03;;;;;;;7.75;1.67;;;5.20;79.50;;;;;;5092544;28;20409;-74
2021/01/14 00:20:28;;;;;;;5.00;0.93;;;5.20;79.50;;;;;;5094154;28;20065;-74
2021/01/14 00:22:54;;;;;;;2.35;0.95;;;5.10;79.60;;;;;;5093908;28;20111;-74
2021/01/14 00:25:20;;;;;;;3.13;0.77;;;5.20;79.60;;;;;;5094038;28;20102;-74
2021/01/14 00:27:46;;;;;;;6.55;1.20;;;5.10;79.40;;;;;;5092701;28;20032;-74
2021/01/14 00:30:15;;;;;;;4.00;1.00;;;5.20;79.40;;;;;;5093497;28;20020;-74
2021/01/14 00:32:42;;;;;;;3.63;0.98;;;5.20;79.10;;;;;;5092706;28;20033;-76
2021/01/14 00:35:08;;;;;;;3.75;1.20;;;5.20;78.90;;;;;;5093643;28;20031;-75
2021/01/14 00:37:50;;;;;;;6.25;1.55;;;5.10;78.80;;;;;;5092592;28;20024;-75
2021/01/14 00:40:23;;;;;;;5.00;1.05;;;5.10;78.80;;;;;;5093681;28;20466;-74
2021/01/14 00:42:55;;;;;;;3.83;1.00;;;5.10;78.90;;;;;;5092340;28;20035;-75
2021/01/14 00:45:21;;;;;;;4.30;1.05;;;5.10;78.70;;;;;;5093964;28;20490;-75
2021/01/14 00:47:47;;;;;;;7.72;1.65;;;5.10;78.60;;;;;;5092224;28;20122;-75
2021/01/14 00:50:12;;;;;;;7.43;1.38;;;5.10;78.60;;;;;;5092315;28;20458;-75
2021/01/14 00:52:39;;;;;;;2.25;0.82;;;5.10;78.60;;;;;;5093440;28;20111;-75
2021/01/14 00:55:05;;;;;;;5.30;1.58;;;5.10;78.50;;;;;;5093350;28;20472;-75
2021/01/14 00:57:33;;;;;;;8.02;1.35;;;5.00;78.40;;;;;;5091858;28;20024;-75
2021/01/14 00:59:59;;;;;;;2.65;0.90;;;5.00;78.40;;;;;;5093337;28;20042;-75
2021/01/14 01:02:24;;;;;;;5.53;1.15;;;5.10;78.50;;;;;;5091784;28;20144;-75
2021/01/14 01:04:50;;;;;;;5.97;1.20;;;5.10;78.30;;;;;;5091728;28;20031;-75
2021/01/14 01:07:16;;;;;;;5.35;1.10;;;5.10;78.10;;;;;;5091715;28;20088;-75
2021/01/14 01:09:41;;;;;;;2.92;1.00;;;5.00;78.00;;;;;;5091820;28;20393;-75
2021/01/14 01:12:11;;;;;;;4.20;1.10;;;5.00;78.00;;;;;;5091758;28;20024;-75
2021/01/14 01:14:36;;;;;;;3.55;1.13;;;5.00;77.90;;;;;;5092931;28;20036;-75
2021/01/14 01:17:02;;;;;;;2.60;0.80;;;5.00;77.90;;;;;;5091683;28;20169;-75
2021/01/14 01:19:28;;;;;;;3.65;1.17;;;5.00;77.90;;;;;;5091751;28;20031;-75
2021/01/14 01:21:53;;;;;;;7.88;1.75;;;4.90;77.80;;;;;;5091436;28;20020;-75
2021/01/14 01:24:19;;;;;;;1.95;0.80;;;4.90;77.60;;;;;;5091402;28;20043;-75
2021/01/14 01:26:50;;;;;;;4.32;1.05;;;4.90;77.60;;;;;;5092771;28;20062;-75
2021/01/14 01:29:16;;;;;;;4.10;1.02;;;4.80;77.20;;;;;;5092825;28;20032;-75
2021/01/14 01:31:42;;;;;;;4.07;0.90;;;4.80;77.10;;;;;;5091414;28;20093;-75
2021/01/14 01:34:07;;;;;;;7.45;1.05;;;4.70;77.10;;;;;;5091212;28;20109;-75
2021/01/14 01:36:33;;;;;;;4.55;0.90;;;4.70;77.30;;;;;;5092289;28;20020;-75
2021/01/14 01:38:59;;;;;;;7.80;1.20;;;4.60;77.30;;;;;;5092771;28;20361;-75
2021/01/14 01:41:25;;;;;;;7.70;1.35;;;4.70;77.30;;;;;;5091189;28;20028;-75
2021/01/14 01:43:50;;;;;;;4.35;0.82;;;4.60;77.30;;;;;;5091224;28;20115;-75
2021/01/14 01:46:27;;;;;;;2.50;0.95;;;4.60;77.30;;;;;;5092667;28;20043;-75
2021/01/14 01:48:56;;;;;;;6.20;1.10;;;4.60;77.20;;;;;;5091560;28;20392;-75
2021/01/14 01:51:24;;;;;;;5.00;1.20;;;4.60;77.10;;;;;;5092556;28;20028;-75
2021/01/14 01:53:50;;;;;;;4.35;1.20;;;4.60;77.10;;;;;;5091257;28;20020;-75
2021/01/14 01:56:19;;;;;;;3.17;1.30;;;4.60;77.00;;;;;;5091152;28;20035;-76
2021/01/14 01:58:46;;;;;;;3.90;1.45;;;4.50;76.80;;;;;;5091599;28;20337;-75
2021/01/14 02:01:12;;;;;;;3.22;1.33;;;4.50;76.70;;;;;;5090910;28;20024;-75
2021/01/14 02:03:37;;;;;;;3.50;1.10;;;4.50;76.70;;;;;;5092291;28;20491;-75
2021/01/14 02:06:03;;;;;;;3.75;1.17;;;4.40;76.30;;;;;;5091291;28;20089;-74
2021/01/14 02:08:40;;;;;;;3.35;0.90;;;4.40;76.40;;;;;;5091164;28;20040;-75
2021/01/14 02:11:15;;;;;;;7.97;1.30;;;4.40;76.40;;;;;;5095078;28;20420;-75
2021/01/14 02:14:10;;;;;;;4.43;1.10;;;4.30;76.50;;;;;;5094836;28;20479;-75
2021/01/14 02:16:39;;;;;;;3.60;1.00;;;4.30;76.60;;;;;;5090452;28;20044;-75
2021/01/14 02:19:15;;;;;;;2.25;1.00;;;4.30;76.50;;;;;;5095044;28;20028;-75
2021/01/14 02:21:45;;;;;;;5.07;0.93;;;4.30;76.50;;;;;;5094880;28;20028;-75
2021/01/14 02:24:40;;;;;;;2.47;0.90;;;4.30;76.30;;;;;;5094855;28;20044;-75
2021/01/14 02:27:09;;;;;;;4.72;1.20;;;4.30;76.20;;;;;;5096081;28;20074;-75
2021/01/14 02:29:36;;;;;;;3.08;1.10;;;4.30;76.10;;;;;;5096197;28;20067;-75
2021/01/14 02:32:02;;;;;;;6.35;1.15;;;4.30;76.20;;;;;;5094728;28;20028;-75
2021/01/14 02:34:28;;;;;;;6.10;0.93;;;4.20;76.00;;;;;;5094550;28;20033;-75
2021/01/14 02:36:53;;;;;;;3.30;1.02;;;4.20;76.10;;;;;;5094769;28;20028;-75
2021/01/14 02:39:19;;;;;;;6.60;1.10;;;4.20;76.10;;;;;;5096216;28;20039;-75
2021/01/14 02:41:45;;;;;;;7.15;1.10;;;4.20;76.00;;;;;;5094744;28;20071;-75
2021/01/14 02:44:10;;;;;;;1.42;0.73;;;4.20;75.90;;;;;;5095920;28;20036;-75
2021/01/14 02:46:36;;;;;;;4.10;0.93;;;4.20;76.00;;;;;;5095913;28;20032;-75
2021/01/14 02:49:09;;;;;;;3.08;1.10;;;4.20;76.00;;;;;;5094705;28;20032;-75
2021/01/14 02:51:49;;;;;;;5.25;1.10;;;4.20;76.00;;;;;;5094402;28;20028;-75
2021/01/14 02:54:17;;;;;;;4.95;1.42;;;4.20;76.00;;;;;;5094704;28;20028;-75
2021/01/14 02:56:48;;;;;;;3.75;0.90;;;4.20;76.00;;;;;;5094303;28;20066;-75
2021/01/14 02:59:13;;;;;;;5.85;1.10;;;4.20;75.80;;;;;;5094357;28;20028;-75
2021/01/14 03:01:39;;;;;;;5.63;1.25;;;4.20;75.80;;;;;;5094118;28;20035;-75
2021/01/14 03:04:05;;;;;;;4.88;1.20;;;4.10;75.60;;;;;;5094174;28;20099;-75
2021/01/14 03:06:30;;;;;;;4.82;1.23;;;4.00;75.70;;;;;;5094055;28;20111;-75
2021/01/14 03:08:56;;;;;;;4.82;0.75;;;4.00;75.80;;;;;;5094156;28;20039;-75
2021/01/14 03:11:29;;;;;;;6.00;0.93;;;4.00;76.00;;;;;;5094010;28;20036;-75
2021/01/14 03:13:55;;;;;;;4.00;1.20;;;4.00;76.20;;;;;;5095242;28;20036;-74
2021/01/14 03:16:21;;;;;;;3.00;0.80;;;4.00;76.10;;;;;;5092948;28;20425;-75
2021/01/14 03:18:51;;;;;;;5.03;0.90;;;4.00;76.10;;;;;;5093496;28;20017;-75
2021/01/14 03:21:26;;;;;;;5.38;1.40;;;3.90;76.10;;;;;;5093093;28;20036;-75
2021/01/14 03:23:52;;;;;;;6.68;1.13;;;4.00;76.10;;;;;;5093292;28;20044;-75
2021/01/14 03:26:20;;;;;;;5.97;1.35;;;3.90;76.20;;;;;;5094875;28;20107;-75
2021/01/14 03:28:46;;;;;;;3.25;1.02;;;3.90;76.20;;;;;;5094150;28;20476;-75
2021/01/14 03:31:13;;;;;;;4.40;1.15;;;3.90;76.30;;;;;;5094937;28;20044;-75
2021/01/14 03:33:44;;;;;;;7.10;1.00;;;3.90;76.30;;;;;;5094770;28;20487;-75
2021/01/14 03:36:14;;;;;;;2.92;1.00;;;3.90;76.20;;;;;;5093833;28;20024;-75
2021/01/14 03:38:40;;;;;;;3.58;1.30;;;3.90;76.20;;;;;;5095202;28;20052;-75
2021/01/14 03:41:09;;;;;;;3.70;1.10;;;3.80;76.10;;;;;;5093421;28;20056;-74
2021/01/14 03:43:35;;;;;;;3.55;1.25;;;3.80;76.10;;;;;;5093206;28;20392;-75
2021/01/14 03:46:16;;;;;;;1.30;0.63;;;3.80;76.20;;;;;;5094758;28;20039;-74
2021/01/14 03:48:44;;;;;;;4.63;0.80;;;3.70;76.30;;;;;;5094706;28;20467;-75
2021/01/14 03:51:21;;;;;;;4.93;1.20;;;3.70;76.40;;;;;;5093115;28;20061;-74
2021/01/14 03:53:48;;;;;;;3.78;1.10;;;3.70;76.50;;;;;;5093275;28;20027;-75
2021/01/14 03:56:14;;;;;;;3.30;1.02;;;3.70;76.50;;;;;;5094331;28;20047;-75
2021/01/14 03:58:40;;;;;;;3.05;1.20;;;3.70;76.50;;;;;;5092932;28;20020;-75
2021/01/14 04:01:06;;;;;;;3.35;0.82;;;3.70;76.40;;;;;;5094432;28;20028;-74
2021/01/14 04:03:32;;;;;;;4.25;0.90;;;3.70;76.50;;;;;;5092762;28;20032;-74
2021/01/14 04:05:58;;;;;;;4.38;0.95;;;3.70;76.60;;;;;;5094164;28;20035;-75
2021/01/14 04:08:24;;;;;;;3.15;1.23;;;3.70;76.60;;;;;;5092885;28;20039;-75
2021/01/14 04:10:50;;;;;;;3.88;1.02;;;3.80;76.50;;;;;;5094189;28;20035;-75
2021/01/14 04:13:15;;;;;;;2.85;0.75;;;3.70;76.40;;;;;;5092694;28;20020;-75
2021/01/14 04:15:41;;;;;;;2.60;0.63;;;3.70;76.30;;;;;;5094252;28;20024;-74
2021/01/14 04:18:08;;;;;;;4.78;1.00;;;3.70;76.30;;;;;;5093986;28;20546;-74
2021/01/14 04:20:33;;;;;;;3.75;0.93;;;3.70;76.30;;;;;;5092638;28;20035;-75
2021/01/14 04:22:59;;;;;;;6.57;1.05;;;3.70;76.20;;;;;;5092617;28;20040;-74
2021/01/14 04:25:30;;;;;;;4.90;1.08;;;3.70;76.20;;;;;;5092638;28;20024;-75
2021/01/14 04:27:58;;;;;;;6.00;1.00;;;3.60;76.20;;;;;;5092407;28;20024;-74
2021/01/14 04:30:24;;;;;;;2.95;0.75;;;3.60;76.30;;;;;;5093602;28;20024;-74
2021/01/14 04:32:57;;;;;;;6.78;1.10;;;3.60;76.20;;;;;;5091796;28;20495;-75
2021/01/14 04:35:24;;;;;;;4.65;0.90;;;3.60;76.30;;;;;;5092202;28;20365;-75
2021/01/14 04:37:50;;;;;;;2.95;0.75;;;3.50;76.30;;;;;;5092411;28;20043;-74
2021/01/14 04:40:16;;;;;;;3.15;0.70;;;3.50;76.30;;;;;;5092145;28;20112;-75
2021/01/14 04:42:48;;;;;;;3.20;0.90;;;3.40;76.20;;;;;;5093862;28;20497;-75
2021/01/14 04:45:14;;;;;;;2.53;0.88;;;3.40;76.40;;;;;;5092102;28;20119;-72
2021/01/14 04:47:45;;;;;;;5.25;0.70;;;3.40;76.50;;;;;;5091943;28;20028;-75
2021/01/14 04:50:13;;;;;;;2.58;0.70;;;3.40;76.70;;;;;;5092088;28;20414;-74
2021/01/14 04:52:42;;;;;;;4.03;0.65;;;3.40;76.70;;;;;;5093732;28;20024;-75
2021/01/14 04:55:15;;;;;;;3.03;0.70;;;3.40;76.70;;;;;;5091791;28;20062;-75
2021/01/14 04:57:45;;;;;;;4.88;0.80;;;3.50;76.80;;;;;;5111517;28;20067;-75
2021/01/14 05:00:14;;;;;;;2.47;0.60;;;3.50;76.70;;;;;;5094853;28;20059;-74
2021/01/14 05:03:13;;;;;;;1.80;0.60;;;3.50;76.70;;;;;;5112198;28;20070;-74
2021/01/14 05:05:45;;;;;;;3.67;0.82;;;3.60;76.80;;;;;;5111404;28;20104;-75
2021/01/14 05:08:14;;;;;;;5.60;0.98;;;3.50;76.70;;;;;;5111337;28;20039;-74
2021/01/14 05:10:41;;;;;;;2.97;0.65;;;3.60;76.80;;;;;;5094398;28;20542;-74
2021/01/14 05:13:08;;;;;;;2.42;0.80;;;3.70;76.80;;;;;;5111668;28;20115;-75
2021/01/14 05:15:35;;;;;;;5.78;0.80;;;3.70;76.70;;;;;;5108776;28;20064;-75
2021/01/14 05:18:01;;;;;;;3.97;0.77;;;3.70;76.70;;;;;;5111529;28;20035;-74
2021/01/14 05:20:27;;;;;;;4.25;1.20;;;3.70;76.70;;;;;;5111358;28;20047;-74
2021/01/14 05:23:05;;;;;;;4.80;0.80;;;3.80;76.70;;;;;;5093982;28;20419;-74
2021/01/14 05:25:31;;;;;;;6.20;0.80;;;3.80;76.70;;;;;;5110508;28;20073;-74
2021/01/14 05:28:17;;;;;;;2.72;0.70;;;3.80;76.70;;;;;;5090432;28;20096;-75
2021/01/14 05:30:43;;;;;;;2.55;0.85;;;3.80;76.60;;;;;;5091934;28;20028;-75
2021/01/14 05:33:15;;;;;;;4.60;0.70;;;3.80;76.70;;;;;;5091860;28;20097;-73
2021/01/14 05:35:47;;;;;;;2.97;0.60;;;3.80;76.70;;;;;;5090759;28;20036;-74
2021/01/14 05:38:27;;;;;;;3.33;0.88;;;3.80;76.60;;;;;;5091979;28;20020;-74
2021/01/14 05:41:19;;;;;;;3.78;0.70;;;3.70;77.30;;;;;;5090613;28;20054;-75
2021/01/14 05:43:55;;;;;;;4.80;0.90;;;3.70;76.70;;;;;;5089453;28;20028;-75
2021/01/14 05:46:23;;;;;;;6.10;1.10;;;3.70;76.80;;;;;;5092160;28;20456;-74
2021/01/14 05:48:50;;;;;;;1.88;0.63;;;3.70;76.80;;;;;;5090711;28;20028;-75
2021/01/14 05:51:24;;;;;;;2.63;0.70;;;3.70;76.90;;;;;;5091801;28;20055;-74
2021/01/14 05:53:52;;;;;;;;;;;3.60;76.90;;;;;;5090954;28;20028;-75
2021/01/14 05:56:42;;;;;;;3.08;1.02;;;3.60;77.00;;;;;;5090931;28;19956;-75
2021/01/14 05:59:12;;;;;;;3.50;0.70;;;3.60;76.90;;;;;;5092023;28;20540;-75
2021/01/14 06:01:57;;;;;;;2.90;0.60;;;3.60;77.00;;;;;;5091076;28;20407;-74
2021/01/14 06:04:25;;;;;;;3.67;0.65;;;3.70;77.10;;;;;;5091932;28;20040;-74
2021/01/14 06:06:52;;;;;;;4.30;0.90;;;3.60;77.00;;;;;;5090754;28;20024;-74
2021/01/14 06:09:20;;;;;;;2.17;0.73;;;3.60;77.00;;;;;;5090568;28;20032;-74
2021/01/14 06:11:47;;;;;;;3.20;1.05;;;3.60;77.10;;;;;;5090342;28;20032;-74
2021/01/14 06:14:30;;;;;;;4.22;0.98;;;3.60;77.10;;;;;;5091904;28;20084;-75
2021/01/14 06:17:01;;;;;;;2.15;0.75;;;3.60;77.20;;;;;;5090164;28;20024;-75
2021/01/14 06:19:28;;;;;;;4.05;0.85;;;3.60;77.20;;;;;;5091471;28;20035;-74
2021/01/14 06:24:37;;;;;;;4.40;1.00;;;3.70;77.10;;;;;;5090330;27;20452;-74
2021/01/14 06:27:05;;;;;;;2.22;0.73;;;3.70;77.20;;;;;;5089054;28;20024;-74
2021/01/14 06:29:43;;;;;;;2.97;0.85;;;3.70;77.20;;;;;;5090234;28;20032;-74
2021/01/14 06:32:17;;;;;;;4.40;0.82;;;3.60;77.20;;;;;;5088758;28;20024;-74
2021/01/14 06:34:50;;;;;;;3.08;0.80;;;3.60;77.30;;;;;;5089519;28;20051;-75
2021/01/14 06:37:22;;;;;;;;;;;3.60;77.30;;;;;;5090362;28;20033;-74
2021/01/14 06:39:51;;;;;;;5.13;0.77;;;3.70;77.40;;;;;;5088617;28;20027;-74
2021/01/14 06:42:22;;;;;;;3.47;1.30;;;3.60;77.30;;;;;;5090265;28;20039;-74
2021/01/14 06:45:09;;;;;;;7.20;2.15;;;3.60;77.30;;;;;;5088477;28;20107;-74
2021/01/14 06:47:39;;;;;;;4.95;1.30;;;3.60;77.40;;;;;;5088639;28;20024;-74
2021/01/14 06:50:26;;;;;;;2.25;0.90;;;3.60;77.40;;;;;;5088467;28;20055;-74
2021/01/14 06:53:12;;;;;;;3.05;1.00;;;3.60;77.40;;;;;;5090088;28;20020;-74
2021/01/14 06:55:39;;;;;;;3.75;1.10;;;3.60;77.50;;;;;;5089552;28;20042;-74
2021/01/14 06:58:19;;;;;;;5.15;1.00;;;3.60;77.50;;;;;;5088470;28;20392;-74
2021/01/14 07:00:50;;;;;;;4.30;1.02;;;3.60;77.50;;;;;;5088318;28;20105;-74
2021/01/14 07:03:23;;;;;;;4.28;1.10;;;3.60;77.50;;;;;;5088202;28;20035;-75
2021/01/14 07:05:51;;;;;;;2.53;0.80;;;3.50;77.60;;;;;;5089809;28;20028;-74
2021/01/14 07:08:37;;;;;;;5.95;0.90;;;3.50;77.60;;;;;;5088430;28;20036;-74
2021/01/14 07:11:10;;;;;;;1.77;0.68;;;3.50;77.70;;;;;;5089775;28;20028;-74
2021/01/14 07:13:37;;;;;;;2.10;0.70;;;3.50;77.70;;;;;;5088522;28;20037;-75
2021/01/14 07:16:03;;;;;;;2.75;0.73;;;3.50;77.70;;;;;;5107361;28;20292;-74
2021/01/14 07:18:31;;;;;;;5.20;1.00;;;3.50;77.80;;;;;;5107602;28;20040;-74
2021/01/14 07:21:18;;;;;;;3.13;1.00;;;3.50;77.80;;;;;;5107284;28;20043;-75
2021/01/14 07:23:53;;;;;;;3.67;1.13;;;3.50;77.90;;;;;;5106933;28;20498;-75
2021/01/14 07:26:22;;;;;;;4.93;1.23;;;3.50;78.00;;;;;;5090401;28;20037;-74
2021/01/14 07:28:48;;;;;;;2.83;1.30;;;3.50;78.00;;;;;;5108010;28;20337;-75
2021/01/14 07:31:24;;;;;;;6.13;1.60;;;3.50;78.00;;;;;;5107375;28;20073;-74
2021/01/14 07:33:52;;;;;;;6.95;1.40;;;3.50;78.00;;;;;;5106050;28;20030;-74
2021/01/14 07:36:20;;;;;;;7.07;1.33;;;3.60;78.10;;;;;;5093254;28;20031;-74
2021/01/14 07:38:51;;;;;;;3.33;1.13;;;3.60;78.20;;;;;;5093595;28;20069;-74
2021/01/14 07:41:17;;;;;;;3.80;1.48;;;3.60;78.10;;;;;;5093392;28;20036;-74
2021/01/14 07:43:46;;;;;;;3.10;1.30;;;3.60;78.10;;;;;;5093467;28;20067;-75
2021/01/14 07:46:17;;;;;;;3.15;1.35;;;3.60;78.10;;;;;;5090069;28;20037;-74
2021/01/14 07:48:43;;;;;;;3.97;1.40;;;3.60;78.20;;;;;;5073383;28;20070;-73
2021/01/14 07:51:09;;;;;;;4.93;1.40;;;3.70;78.20;;;;;;5056920;28;20028;-74
2021/01/14 07:53:36;;;;;;;4.03;1.52;;;3.70;78.20;;;;;;5074047;28;20503;-74
2021/01/14 07:56:26;;;;;;;5.75;1.45;;;3.70;78.20;;;;;;5073790;28;20111;-75
2021/01/14 07:58:54;;;;;;;4.45;1.40;;;3.80;78.20;;;;;;5073648;28;20086;-74
2021/01/14 08:01:20;;;;;;;3.28;1.20;;;3.80;78.10;;;;;;5075017;28;20073;-74
2021/01/14 08:03:46;;;;;;;5.00;1.45;;;3.80;78.10;;;;;;5073456;28;20040;-74
2021/01/14 08:06:30;;;;;;;6.20;1.58;;;3.80;78.00;;;;;;5073389;28;20035;-74
2021/01/14 08:09:06;;;;;;;8.23;1.30;;;3.80;78.00;;;;;;5073849;28;20364;-74
2021/01/14 08:11:47;;;;;;;4.50;1.30;;;3.80;77.90;;;;;;5073733;28;20115;-74
2021/01/14 08:14:17;;;;;;;3.75;1.30;;;3.80;77.90;;;;;;5073473;28;20040;-74
2021/01/14 08:16:54;;;;;;;5.13;1.38;;;3.80;77.90;;;;;;5074589;28;20106;-74
2021/01/14 08:19:20;;;;;;;3.92;1.38;;;3.80;78.50;;;;;;5074652;28;20110;-74
2021/01/14 08:21:58;;;;;;;4.32;1.20;;;3.80;77.80;;;;;;5074385;28;20025;-75
2021/01/14 08:24:48;;;;;;;2.40;1.10;;;3.90;77.80;;;;;;5074695;28;20139;-75
2021/01/14 08:27:23;;;;;;;3.78;1.25;;;3.90;77.70;;;;;;5073027;28;20021;-75
2021/01/14 08:29:57;;;;;;;2.65;1.20;;;3.90;77.70;;;;;;5073050;28;20480;-75
2021/01/14 08:32:44;;;;;;;3.22;1.02;;;3.90;77.70;;;;;;5074690;28;20170;-74
2021/01/14 08:35:17;;;;;;;3.00;0.98;;;3.90;77.50;;;;;;5073581;28;20040;-75
2021/01/14 08:38:17;;;;;;;2.58;0.90;;;4.00;77.60;;;;;;5073612;28;20476;-75
2021/01/14 08:40:43;;;;;;;3.72;1.10;;;4.00;77.50;;;;;;5062356;28;20059;-74
2021/01/14 08:43:11;;;;;;;3.35;1.27;;;4.00;77.50;;;;;;5072893;28;20024;-74
2021/01/14 08:45:46;;;;;;;1.48;0.90;;;4.00;77.50;;;;;;5072640;28;20173;-75
2021/01/14 08:48:32;;;;;;;3.33;1.10;;;4.00;77.30;;;;;;5073068;28;20427;-75
2021/01/14 08:50:58;;;;;;;3.45;1.00;;;4.00;77.30;;;;;;5072623;28;20067;-75
2021/01/14 08:53:30;;;;;;;5.03;0.95;;;4.10;77.30;;;;;;5072826;28;20032;-75
2021/01/14 08:56:01;;;;;;;4.20;1.00;;;4.10;77.30;;;;;;5072749;28;20503;-74
2021/01/14 08:58:34;;;;;;;2.33;1.00;;;4.10;77.20;;;;;;5072955;28;20025;-76
2021/01/14 09:01:00;;;;;;;8.88;1.10;;;4.10;77.10;;;;;;5074040;28;20028;-75
2021/01/14 09:03:27;;;;;;;3.97;1.17;;;4.10;77.00;;;;;;5072580;28;20503;-76
2021/01/14 09:05:54;;;;;;;2.25;0.98;;;4.20;77.00;;;;;;5074020;28;20025;-75
2021/01/14 09:11:42;;;;;;;6.70;1.20;;;4.20;76.80;;;;;;5074462;28;20039;-74
2021/01/14 09:14:27;;;;;;;3.58;1.08;;;4.30;76.80;;;;;;5072612;28;20464;-78
2021/01/14 09:16:52;;;;;;;3.60;1.00;;;4.30;76.60;;;;;;5074216;28;20036;-75
2021/01/14 09:19:20;;;;;;;5.30;1.20;;;4.30;76.60;;;;;;5073958;28;20082;-75
2021/01/14 09:21:46;;;;;;;3.70;1.20;;;4.30;76.50;;;;;;5072680;28;20024;-75
2021/01/14 09:24:14;;;;;;;2.60;1.00;;;4.40;76.50;;;;;;5072248;28;20068;-75
2021/01/14 09:26:41;;;;;;;2.40;1.10;;;4.40;76.40;;;;;;5073530;28;20452;-74
2021/01/14 09:29:11;;;;;;;4.95;1.38;;;4.40;76.20;;;;;;5072041;28;20033;-74
2021/01/14 09:31:37;;;;;;;3.00;1.23;;;4.50;76.10;;;;;;5072403;28;20028;-75
2021/01/14 09:34:03;;;;;;;6.22;1.30;;;4.50;76.10;;;;;;5073529;28;20127;-76
2021/01/14 09:36:29;;;;;;;4.93;1.40;;;4.50;76.00;;;;;;5072035;28;20028;-74
2021/01/14 09:39:01;;;;;;;4.03;1.30;;;4.50;75.90;;;;;;5071682;28;20024;-75
2021/01/14 09:41:29;;;;;;;6.15;1.60;;;4.60;75.90;;;;;;5070976;28;20036;-74
2021/01/14 09:44:15;;;;;;;4.70;1.70;;;4.60;75.70;;;;;;5053843;28;20060;-74
2021/01/14 09:46:47;;;;;;;3.08;1.20;;;4.80;75.60;;;;;;5054067;28;20174;-74
2021/01/14 09:49:19;;;;;;;2.17;1.40;;;4.70;75.40;;;;;;5053979;28;20035;-74
2021/01/14 09:51:46;;;;;;;3.42;1.45;;;4.70;75.40;;;;;;5070923;28;20183;-74
2021/01/14 09:54:12;;;;;;;5.63;1.10;;;4.70;75.20;;;;;;5070675;28;20036;-77
2021/01/14 09:56:39;;;;;;;4.75;1.83;;;4.70;75.10;;;;;;5070914;28;20151;-75
2021/01/14 09:59:37;;;;;;;3.65;1.35;;;4.70;75.20;;;;;;5070369;28;20029;-74
2021/01/14 10:02:24;;;;;;;5.90;1.58;;;4.70;75.20;;;;;;5049375;28;20064;-74
2021/01/14 10:04:56;;;;;;;4.72;1.45;;;4.80;75.20;;;;;;5070539;28;20033;-76
2021/01/14 10:07:24;;;;;;;3.92;1.33;;;4.80;75.10;;;;;;5070698;28;20047;-75
2021/01/14 10:09:51;;;;;;;4.15;1.30;;;4.80;75.00;;;;;;5053948;28;20050;-76
2021/01/14 10:12:17;;;;;;;3.78;1.38;;;4.80;75.00;;;;;;5059864;28;20044;-75
2021/01/14 10:14:43;;;;;;;5.25;1.23;;;4.90;75.00;;;;;;5072632;28;20032;-76
2021/01/14 10:17:16;;;;;;;2.90;1.42;;;4.90;74.90;;;;;;5071475;28;20395;-76
2021/01/14 10:19:51;;;;;;;4.53;1.30;;;4.90;75.50;;;;;;5072654;28;20384;-75
2021/01/14 10:22:17;;;;;;;5.07;1.35;;;4.90;76.10;;;;;;5072550;28;20317;-75
2021/01/14 10:24:43;;;;;;;4.22;1.45;;;4.90;75.80;;;;;;5070997;28;20048;-76
2021/01/14 10:27:14;;;;;;;3.78;1.42;;;4.80;75.50;;;;;;5071287;28;20119;-75
2021/01/14 10:29:41;;;;;;;3.55;1.40;;;4.80;75.40;;;;;;5071422;28;20072;-75
2021/01/14 10:32:09;;;;;;;5.63;1.55;;;4.80;75.40;;;;;;5071370;28;20078;-75
2021/01/14 10:34:41;;;;;;;2.70;1.30;;;4.80;75.40;;;;;;5073346;28;20036;-76
2021/01/14 10:37:17;;;;;;;2.65;1.40;;;4.70;75.20;;;;;;5071316;28;20124;-75
2021/01/14 10:39:43;;;;;;;6.00;1.50;;;4.60;75.60;;;;;;5071170;28;20029;-75
2021/01/14 10:42:48;;;;;;;4.70;1.60;;;4.60;76.00;;;;;;5071237;28;20388;-76
2021/01/14 10:45:22;;;;;;;7.03;1.77;;;4.50;75.80;;;;;;5070108;28;20033;-75
2021/01/14 10:47:48;;;;;;;6.05;1.75;;;4.50;75.80;;;;;;5068594;28;20063;-75
2021/01/14 10:50:25;;;;;;;2.83;1.55;;;4.40;75.60;;;;;;5072533;28;20071;-75
2021/01/14 10:53:02;;;;;;;3.72;1.80;;;4.50;75.40;;;;;;5072385;28;20020;-75
2021/01/14 10:55:28;;;;;;;5.53;2.55;;;4.50;75.50;;;;;;5071048;28;20047;-75
2021/01/14 10:57:56;;;;;;;6.22;2.08;;;4.40;75.40;;;;;;5070964;28;20464;-75
2021/01/14 11:00:24;;;;;;;6.93;2.10;;;4.40;75.50;;;;;;5072191;28;20430;-76
2021/01/14 11:03:15;;;;;;;3.78;2.17;;;4.40;75.50;;;;;;5072026;28;20119;-75
2021/01/14 11:05:54;;;;;;;5.35;1.95;;;4.50;75.50;;;;;;5071016;28;20083;-75
2021/01/14 11:08:37;;;;;;;6.63;2.58;;;4.40;75.40;;;;;;5070988;28;20021;-75
2021/01/14 11:11:05;;;;;;;3.83;2.10;;;4.50;75.40;;;;;;5074050;28;20024;-76
2021/01/14 11:13:46;;;;;;;4.25;1.90;;;4.50;75.20;;;;;;5076029;28;20032;-76
2021/01/14 11:16:16;;;;;;;5.55;2.15;;;4.60;75.20;;;;;;5074804;28;20028;-74
2021/01/14 11:18:43;;;;;;;4.55;2.47;;;4.60;75.20;;;;;;5074389;28;20109;-76
2021/01/14 11:21:10;;;;;;;5.78;2.50;;;4.60;75.10;;;;;;5075837;28;20036;-74
2021/01/14 11:23:38;;;;;;;5.05;2.15;;;4.70;75.10;;;;;;5074235;28;20046;-74
2021/01/14 11:26:05;;;;;;;7.22;2.17;;;4.70;75.00;;;;;;5074435;28;20024;-74
2021/01/14 11:28:31;;;;;;;5.82;2.22;;;4.60;75.00;;;;;;5074379;28;20033;-75
2021/01/14 11:30:58;;;;;;;6.05;2.88;;;4.60;74.90;;;;;;5074245;28;20399;-74
2021/01/14 11:33:24;;;;;;;10.32;2.70;;;4.60;74.90;;;;;;5074413;28;20029;-74
2021/01/14 11:35:49;;;;;;;6.13;2.63;;;4.60;75.00;;;;;;5075576;28;20168;-74
2021/01/14 11:38:15;;;;;;;6.07;2.53;;;4.60;75.00;;;;;;5074491;28;20028;-74
2021/01/14 11:40:41;;;;;;;9.18;2.83;;;4.60;75.10;;;;;;5075986;28;20044;-75
2021/01/14 11:43:07;;;;;;;9.13;2.60;;;4.60;75.10;;;;;;5075758;28;20036;-75
2021/01/14 11:45:32;;;;;;;4.30;2.13;;;4.50;75.00;;;;;;5074033;28;20472;-75
2021/01/14 11:47:58;;;;;;;3.92;2.22;;;4.60;75.10;;;;;;5074042;28;20016;-74
2021/01/14 11:50:24;;;;;;;4.55;2.30;;;4.50;75.00;;;;;;5073879;28;20024;-75
2021/01/14 11:52:49;;;;;;;5.43;2.65;;;4.60;75.00;;;;;;5074039;28;20090;-74
2021/01/14 11:55:15;;;;;;;6.15;2.50;;;4.60;75.00;;;;;;5074463;28;20203;-75
2021/01/14 11:57:41;;;;;;;5.00;2.10;;;4.60;75.00;;;;;;5073743;28;20028;-75
2021/01/14 12:00:10;;;;;;;5.68;2.20;;;4.70;75.00;;;;;;5073683;28;20031;-75
2021/01/14 12:02:37;;;;;;;4.05;2.15;;;4.70;74.90;;;;;;5073500;28;20115;-74
2021/01/14 12:05:04;;;;;;;4.50;2.55;;;4.70;74.80;;;;;;5075326;28;20023;-74
2021/01/14 12:07:29;;;;;;;7.53;2.00;;;4.70;74.70;;;;;;5073983;28;20020;-74
2021/01/14 12:09:56;;;;;;;2.95;1.92;;;4.70;74.70;;;;;;5074899;28;20029;-75
2021/01/14 12:12:22;;;;;;;4.50;1.98;;;4.70;74.80;;;;;;5073917;28;20376;-76
2021/01/14 12:14:48;;;;;;;4.65;2.17;;;4.80;74.80;;;;;;5074610;28;20095;-74
2021/01/14 12:17:14;;;;;;;3.72;1.90;;;4.70;74.60;;;;;;5073547;28;20093;-75
2021/01/14 12:19:40;;;;;;;3.80;1.75;;;4.80;74.60;;;;;;5074635;28;20511;-74
2021/01/14 12:22:06;;;;;;;3.10;1.80;;;4.90;74.40;;;;;;5074516;28;20059;-75
2021/01/14 12:24:32;;;;;;;4.15;1.98;;;4.90;74.20;;;;;;5072870;28;20041;-76
2021/01/14 12:26:58;;;;;;;5.00;2.20;;;5.10;73.90;;;;;;5073472;28;20464;-74
2021/01/14 12:29:24;;;;;;;4.07;2.20;;;5.10;73.50;;;;;;5074379;28;20028;-75
2021/01/14 12:31:51;;;;;;;6.72;2.25;;;5.20;73.40;;;;;;5074612;28;20069;-75
2021/01/14 12:34:17;;;;;;;3.50;2.20;;;5.30;73.30;;;;;;5073114;28;20024;-75
2021/01/14 12:36:42;;;;;;;8.50;2.85;;;5.30;73.30;;;;;;5073522;28;20086;-76
2021/01/14 12:39:08;;;;;;;4.65;2.42;;;5.30;73.00;;;;;;5074752;28;20029;-75
2021/01/14 12:41:34;;;;;;;4.35;2.05;;;5.40;72.90;;;;;;5073027;28;20043;-75
2021/01/14 12:44:01;;;;;;;4.47;2.28;;;5.40;73.40;;;;;;5072990;28;20025;-76
2021/01/14 12:46:38;;;;;;;5.72;2.15;;;5.40;72.60;;;;;;5073017;28;20032;-77
2021/01/14 12:49:05;;;;;;;4.70;1.90;;;5.30;72.40;;;;;;5073465;28;20446;-75
2021/01/14 12:51:31;;;;;;;3.72;2.10;;;5.30;73.00;;;;;;5074260;28;20032;-75
2021/01/14 12:53:56;;;;;;;5.15;1.85;;;5.20;73.00;;;;;;5072822;28;20488;-74
2021/01/14 12:56:22;;;;;;;4.25;1.80;;;5.20;73.40;;;;;;5072640;28;20025;-74
2021/01/14 12:58:47;;;;;;;4.93;1.75;;;5.10;73.50;;;;;;5072960;28;20021;-75
2021/01/14 13:01:13;;;;;;;3.33;1.80;;;5.10;75.20;;;;;;5072715;28;20071;-75
2021/01/14 13:03:39;;;;;;;3.50;1.90;;;5.00;75.40;;;;;;5074093;28;20033;-75
2021/01/14 13:06:05;;;;;;;3.38;1.77;;;4.90;75.00;;;;;;5072956;28;20030;-75
2021/01/14 13:08:31;;;;;;;4.72;1.95;;;5.00;74.60;;;;;;5072859;28;20031;-75
2021/01/14 13:10:56;;;;;;;2.85;1.60;;;5.00;74.20;;;;;;5092122;28;20075;-76
2021/01/14 13:13:22;;;;;;;3.00;1.70;;;5.00;74.30;;;;;;5092274;28;20463;-75
2021/01/14 13:15:52;;;;;;;4.13;1.90;;;5.00;74.10;;;;;;5075189;28;20036;-75
2021/01/14 13:18:18;;;;;;;3.67;1.90;;;5.10;73.80;;;;;;5074817;28;20039;-75